Time;durP1;ratioP1;P1;durP2;ratioP2;P2;SDS_P1;SDS_P2;PMS_P1;PMS_P2;Temp;Humidity;BMP_temperature;BMP_pressure;BME280_temperature;BME280_humidity;BME280_pressure;Samples;Min_cycle;Max_cycle;Signal;HPM_P1;HPM_P2
2022/01/17 00:01:38;;;;;;;13.50;2.90;;;5.80;99.90;;;;;;5009228;28;20156;-81
2022/01/17 00:04:04;;;;;;;17.27;2.83;;;5.80;99.90;;;;;;4996625;28;20069;-81
2022/01/17 00:06:29;;;;;;;12.23;2.65;;;5.80;99.90;;;;;;5015419;28;20144;-81
2022/01/17 00:08:55;;;;;;;15.98;2.75;;;5.60;99.90;;;;;;5019759;28;20120;-81
2022/01/17 00:11:21;;;;;;;16.00;3.78;;;5.70;99.90;;;;;;5012790;28;20451;-81
2022/01/17 00:13:48;;;;;;;22.67;3.50;;;5.70;99.90;;;;;;4995468;28;20037;-81
2022/01/17 00:16:20;;;;;;;18.23;3.25;;;5.70;99.90;;;;;;5009629;28;20037;-81
2022/01/17 00:21:14;;;;;;;14.07;2.70;;;5.90;99.90;;;;;;5011839;28;20679;-81
2022/01/17 00:23:41;;;;;;;14.40;3.03;;;5.80;99.90;;;;;;5009602;28;20037;-81
2022/01/17 00:26:07;;;;;;;16.02;3.17;;;5.90;99.90;;;;;;5021447;28;20037;-81
2022/01/17 00:28:33;;;;;;;15.70;2.50;;;5.90;99.90;;;;;;5009545;28;20106;-81
2022/01/17 00:31:01;;;;;;;17.50;3.70;;;5.90;99.90;;;;;;5011502;28;20065;-81
2022/01/17 00:33:29;;;;;;;14.98;3.13;;;5.90;99.90;;;;;;4998759;28;20099;-82
2022/01/17 00:35:54;;;;;;;16.65;2.67;;;5.90;99.90;;;;;;5009056;28;20052;-81
2022/01/17 00:38:20;;;;;;;15.27;3.22;;;5.80;99.90;;;;;;5005195;28;20479;-81
2022/01/17 00:40:46;;;;;;;17.55;3.42;;;5.80;99.90;;;;;;5009230;28;20476;-81
2022/01/17 00:43:12;;;;;;;16.58;2.65;;;5.80;99.90;;;;;;5008697;28;20044;-81
2022/01/17 00:45:40;;;;;;;13.60;3.28;;;5.80;99.90;;;;;;5012292;28;20095;-81
2022/01/17 00:48:07;;;;;;;10.00;2.42;;;5.80;99.90;;;;;;5008718;28;20071;-81
2022/01/17 00:50:37;;;;;;;12.43;2.38;;;5.80;99.90;;;;;;5009561;28;20144;-81
2022/01/17 00:53:04;;;;;;;12.85;2.45;;;5.90;99.90;;;;;;5010750;28;20037;-81
2022/01/17 00:55:31;;;;;;;18.00;3.30;;;5.90;99.90;;;;;;5008504;28;20125;-81
2022/01/17 00:57:57;;;;;;;14.25;2.97;;;5.80;99.90;;;;;;5009482;28;20464;-81
2022/01/17 01:00:23;;;;;;;11.50;2.53;;;5.80;99.90;;;;;;5013075;28;20483;-81
2022/01/17 01:02:49;;;;;;;18.20;3.05;;;5.80;99.90;;;;;;5005770;28;20516;-81
2022/01/17 01:05:16;;;;;;;18.38;2.65;;;5.70;99.90;;;;;;5009984;28;20049;-81
2022/01/17 01:07:42;;;;;;;11.63;2.38;;;5.70;99.90;;;;;;5010622;28;20530;-81
2022/01/17 01:10:12;;;;;;;15.43;2.83;;;5.60;99.90;;;;;;5010992;28;20095;-81
2022/01/17 01:12:42;;;;;;;9.65;2.03;;;5.60;99.90;;;;;;5008894;28;20591;-81
2022/01/17 01:15:14;;;;;;;17.77;2.70;;;5.60;99.90;;;;;;5007642;28;20520;-81
2022/01/17 01:17:55;;;;;;;13.43;2.72;;;5.60;99.90;;;;;;5007555;28;20423;-81
2022/01/17 01:28:18;;;;;;;16.42;2.63;;;5.60;99.90;;;;;;5006179;28;20040;-81
2022/01/17 01:30:48;;;;;;;15.80;3.10;;;5.60;99.90;;;;;;5010623;28;20092;-81
2022/01/17 01:33:24;;;;;;;13.40;2.13;;;5.60;99.90;;;;;;5011279;28;20041;-81
2022/01/17 01:35:56;;;;;;;12.68;3.10;;;5.60;99.90;;;;;;5031237;28;20112;-81
2022/01/17 01:38:22;;;;;;;13.68;2.70;;;5.60;99.90;;;;;;5008047;28;20049;-81
2022/01/17 01:40:48;;;;;;;13.68;2.47;;;5.60;99.90;;;;;;5013667;28;20102;-81
2022/01/17 01:43:15;;;;;;;14.02;2.15;;;5.60;99.90;;;;;;5008616;28;20519;-81
2022/01/17 01:45:40;;;;;;;15.48;2.72;;;5.60;99.90;;;;;;5009121;28;20119;-81
2022/01/17 01:48:08;;;;;;;11.35;2.95;;;5.60;99.90;;;;;;5009592;28;20063;-81
2022/01/17 01:50:34;;;;;;;17.23;2.85;;;5.60;99.90;;;;;;5009557;28;20037;-81
2022/01/17 01:53:00;;;;;;;13.60;2.40;;;5.60;99.90;;;;;;5006519;28;20048;-81
2022/01/17 01:55:26;;;;;;;13.73;2.40;;;5.60;99.90;;;;;;5022737;28;20099;-80
2022/01/17 01:57:52;;;;;;;16.65;2.88;;;5.60;99.90;;;;;;5032620;28;20037;-80
2022/01/17 02:00:18;;;;;;;16.65;2.97;;;5.60;99.90;;;;;;4992174;28;20045;-81
2022/01/17 02:02:44;;;;;;;12.55;2.22;;;5.60;99.90;;;;;;5010593;28;20045;-81
2022/01/17 02:05:11;;;;;;;23.50;3.53;;;5.50;99.90;;;;;;5003514;28;20045;-81
2022/01/17 02:07:38;;;;;;;17.30;2.70;;;5.50;99.90;;;;;;5008310;28;20168;-81
2022/01/17 02:10:05;;;;;;;14.13;4.60;;;5.50;99.90;;;;;;5010928;28;20040;-81
2022/01/17 02:12:32;;;;;;;16.02;3.10;;;5.50;99.90;;;;;;5007004;28;20059;-81
2022/01/17 02:14:58;;;;;;;17.23;3.17;;;5.50;99.90;;;;;;5008928;28;20056;-81
2022/01/17 02:17:25;;;;;;;14.35;2.75;;;5.50;99.90;;;;;;5006589;28;20041;-81
2022/01/17 02:20:04;;;;;;;15.10;2.97;;;5.50;99.90;;;;;;5010673;28;20120;-81
2022/01/17 02:22:30;;;;;;;16.17;2.58;;;5.50;99.90;;;;;;5008061;28;20045;-80
2022/01/17 02:24:56;;;;;;;18.27;2.80;;;5.50;99.90;;;;;;5007824;28;20048;-81
2022/01/17 02:27:22;;;;;;;14.95;2.75;;;5.50;99.90;;;;;;5018849;28;20427;-81
2022/01/17 02:29:48;;;;;;;16.65;3.25;;;5.40;99.90;;;;;;5020946;28;20038;-81
2022/01/17 02:32:13;;;;;;;10.13;2.90;;;5.40;99.90;;;;;;5041395;28;20041;-81
2022/01/17 02:34:43;;;;;;;12.20;2.15;;;5.50;99.90;;;;;;5011996;28;20214;-81
2022/01/17 02:37:10;;;;;;;12.60;2.20;;;5.40;99.90;;;;;;5011738;28;20049;-81
2022/01/17 02:39:37;;;;;;;11.25;2.70;;;5.40;99.90;;;;;;5014930;28;20171;-81
2022/01/17 02:42:04;;;;;;;12.57;2.80;;;5.50;99.90;;;;;;5013775;28;20161;-80
2022/01/17 02:44:29;;;;;;;12.30;2.70;;;5.50;99.90;;;;;;5010938;28;20096;-81
2022/01/17 02:46:55;;;;;;;15.25;3.25;;;5.40;99.90;;;;;;5002130;28;20480;-80
2022/01/17 02:49:21;;;;;;;17.98;3.03;;;5.30;99.90;;;;;;5011303;28;20044;-81
2022/01/17 02:51:48;;;;;;;15.23;2.40;;;5.20;99.90;;;;;;5013106;28;20067;-81
2022/01/17 02:54:17;;;;;;;15.15;3.15;;;5.20;99.90;;;;;;5011704;28;20041;-81
2022/01/17 02:56:43;;;;;;;17.30;2.67;;;5.20;99.90;;;;;;5012535;28;20131;-80
2022/01/17 02:59:09;;;;;;;15.90;2.90;;;5.30;99.90;;;;;;5012066;28;20041;-81
2022/01/17 03:01:34;;;;;;;19.42;2.65;;;5.30;99.90;;;;;;5010059;28;20029;-81
2022/01/17 03:04:00;;;;;;;16.17;2.83;;;5.30;99.90;;;;;;5002811;28;20135;-81
2022/01/17 03:06:28;;;;;;;13.00;2.25;;;5.40;99.90;;;;;;5007898;28;20447;-81
2022/01/17 03:08:54;;;;;;;22.25;3.70;;;5.40;99.90;;;;;;5011591;28;20052;-81
2022/01/17 03:11:23;;;;;;;17.58;3.03;;;5.30;99.90;;;;;;5010532;28;20121;-81
2022/01/17 03:13:51;;;;;;;14.52;2.25;;;5.30;99.90;;;;;;5027270;28;20076;-81
2022/01/17 03:16:18;;;;;;;17.30;3.00;;;5.40;99.90;;;;;;5020095;28;20045;-81
2022/01/17 03:18:46;;;;;;;12.75;2.47;;;5.40;99.90;;;;;;5038975;28;20041;-80
2022/01/17 03:21:15;;;;;;;17.83;3.22;;;5.40;99.90;;;;;;5007265;28;20037;-81
2022/01/17 03:23:42;;;;;;;15.20;2.63;;;5.40;99.90;;;;;;5013746;28;20029;-81
2022/01/17 03:26:08;;;;;;;23.15;3.20;;;5.40;99.90;;;;;;5013159;28;20075;-81
2022/01/17 03:28:35;;;;;;;15.50;2.75;;;5.40;99.90;;;;;;5008138;28;20037;-81
2022/01/17 03:31:01;;;;;;;16.55;2.88;;;5.40;99.90;;;;;;5012230;28;20280;-81
2022/01/17 03:33:29;;;;;;;15.27;2.78;;;5.50;99.90;;;;;;5010396;28;20041;-81
2022/01/17 03:35:56;;;;;;;16.98;3.22;;;5.50;99.90;;;;;;5014002;28;20159;-81
2022/01/17 03:38:24;;;;;;;12.95;2.90;;;5.50;99.90;;;;;;5011707;28;20037;-81
2022/01/17 03:40:51;;;;;;;14.20;2.53;;;5.50;99.90;;;;;;5007716;28;20057;-81
2022/01/17 03:43:18;;;;;;;13.20;2.40;;;5.60;99.90;;;;;;5031682;28;20269;-81
2022/01/17 03:45:49;;;;;;;13.02;2.35;;;5.60;99.90;;;;;;5020642;28;20041;-81
2022/01/17 03:48:15;;;;;;;13.23;2.30;;;5.60;99.90;;;;;;5007892;28;20638;-81
2022/01/17 03:50:42;;;;;;;22.17;3.15;;;5.60;99.90;;;;;;5013845;28;20384;-81
2022/01/17 03:53:08;;;;;;;20.50;4.55;;;5.60;99.90;;;;;;4998788;28;20072;-81
2022/01/17 03:55:34;;;;;;;11.95;2.42;;;5.60;99.90;;;;;;5010976;28;20053;-81
2022/01/17 03:58:02;;;;;;;17.40;2.38;;;5.60;99.90;;;;;;5008602;28;20033;-80
2022/01/17 04:00:32;;;;;;;19.75;3.38;;;5.60;99.90;;;;;;5009286;28;20136;-81
2022/01/17 04:02:58;;;;;;;14.98;2.95;;;5.50;99.90;;;;;;5012441;28;20103;-81
2022/01/17 04:05:24;;;;;;;16.77;3.28;;;5.50;99.90;;;;;;5008704;28;20104;-81
2022/01/17 04:07:49;;;;;;;15.25;2.28;;;5.50;99.90;;;;;;5011108;28;20516;-81
2022/01/17 04:10:16;;;;;;;15.18;3.00;;;5.40;99.90;;;;;;5010463;28;20392;-81
2022/01/17 04:12:42;;;;;;;11.18;2.35;;;5.40;99.90;;;;;;5010964;28;20498;-81
2022/01/17 04:15:09;;;;;;;20.98;2.60;;;5.40;99.90;;;;;;5012618;28;20045;-81
2022/01/17 04:17:35;;;;;;;13.85;2.33;;;5.50;99.90;;;;;;5001393;28;20499;-81
2022/01/17 04:20:08;;;;;;;14.93;3.60;;;5.50;99.90;;;;;;5010042;28;20400;-81
2022/01/17 04:22:38;;;;;;;13.80;2.20;;;5.40;99.90;;;;;;5010684;28;20041;-80
2022/01/17 04:25:09;;;;;;;10.38;2.40;;;5.50;99.90;;;;;;5027490;28;20041;-81
2022/01/17 04:27:35;;;;;;;8.05;2.03;;;5.40;99.90;;;;;;5016383;28;20041;-81
2022/01/17 04:30:02;;;;;;;11.68;2.72;;;5.50;99.90;;;;;;5002264;28;20041;-81
2022/01/17 04:32:28;;;;;;;14.43;2.75;;;5.50;99.90;;;;;;4995481;28;20064;-81
2022/01/17 04:34:54;;;;;;;9.40;2.00;;;5.50;99.90;;;;;;5010812;28;20503;-81
2022/01/17 04:37:19;;;;;;;16.02;2.92;;;5.60;99.90;;;;;;5012466;28;20084;-81
2022/01/17 04:39:45;;;;;;;11.52;2.33;;;5.60;99.90;;;;;;5010880;28;20132;-81
2022/01/17 04:42:12;;;;;;;12.77;2.60;;;5.70;99.90;;;;;;4992624;28;20057;-81
2022/01/17 04:47:29;;;;;;;11.98;2.92;;;5.80;99.90;;;;;;5026347;28;20087;-81
2022/01/17 04:49:55;;;;;;;14.52;2.58;;;5.80;99.90;;;;;;5010799;28;20036;-81
2022/01/17 04:52:20;;;;;;;16.08;2.33;;;5.90;99.90;;;;;;5008264;28;20136;-80
2022/01/17 04:54:54;;;;;;;13.70;3.22;;;5.90;99.90;;;;;;5037991;28;20143;-81
2022/01/17 04:57:21;;;;;;;11.60;2.78;;;6.00;99.90;;;;;;5004790;28;20045;-81
2022/01/17 04:59:48;;;;;;;9.68;2.22;;;6.00;99.90;;;;;;5011735;28;20045;-81
2022/01/17 05:02:14;;;;;;;13.05;2.47;;;6.00;99.90;;;;;;5006040;28;20076;-81
2022/01/17 05:04:40;;;;;;;10.02;2.60;;;6.10;99.90;;;;;;5011528;28;20052;-81
2022/01/17 05:07:06;;;;;;;8.52;2.15;;;6.20;99.90;;;;;;5010448;28;22120;-81
2022/01/17 05:09:32;;;;;;;15.32;3.13;;;6.20;99.90;;;;;;5013540;28;20337;-81
2022/01/17 05:11:58;;;;;;;12.20;2.30;;;6.20;99.90;;;;;;5008240;28;20040;-81
2022/01/17 05:14:25;;;;;;;14.25;3.03;;;6.20;99.90;;;;;;5007320;28;20123;-81
2022/01/17 05:16:59;;;;;;;13.93;2.53;;;6.20;99.90;;;;;;5007086;28;20048;-81
2022/01/17 05:22:09;;;;;;;14.70;2.50;;;6.30;99.90;;;;;;5024819;28;20103;-81
2022/01/17 05:24:35;;;;;;;12.50;3.42;;;6.40;99.90;;;;;;5007258;28;20049;-81
2022/01/17 05:27:00;;;;;;;18.90;3.10;;;6.40;99.90;;;;;;5018648;28;20029;-81
2022/01/17 05:29:26;;;;;;;14.68;2.88;;;6.40;99.90;;;;;;5009045;28;20079;-81
2022/01/17 05:31:52;;;;;;;14.75;2.72;;;6.40;99.90;;;;;;5005700;28;20026;-81
2022/01/17 05:34:18;;;;;;;12.52;2.80;;;6.40;99.90;;;;;;5008338;28;20045;-81
2022/01/17 05:36:44;;;;;;;14.30;2.63;;;6.40;99.90;;;;;;5017567;28;20080;-81
2022/01/17 05:39:09;;;;;;;21.90;3.45;;;6.40;99.90;;;;;;5008314;28;20676;-81
2022/01/17 05:41:35;;;;;;;12.80;3.20;;;6.50;99.90;;;;;;5008000;28;20058;-81
2022/01/17 05:44:01;;;;;;;18.00;3.55;;;6.50;99.90;;;;;;5006286;28;20040;-81
2022/01/17 05:46:26;;;;;;;17.08;3.10;;;6.50;99.90;;;;;;5007413;28;20041;-81
2022/01/17 05:48:52;;;;;;;15.98;3.33;;;6.50;99.90;;;;;;5009250;28;20065;-81
2022/01/17 05:51:18;;;;;;;15.75;3.20;;;6.50;99.90;;;;;;5011437;28;20310;-81
2022/01/17 05:53:43;;;;;;;13.70;3.10;;;6.60;99.90;;;;;;5010174;28;20038;-81
2022/01/17 05:56:09;;;;;;;12.82;3.00;;;6.50;99.90;;;;;;5004655;28;20094;-81
2022/01/17 05:58:35;;;;;;;14.52;3.45;;;6.60;99.90;;;;;;5002648;28;20037;-81
2022/01/17 06:01:01;;;;;;;16.08;3.17;;;6.60;99.90;;;;;;5010468;28;20451;-81
2022/01/17 06:03:26;;;;;;;26.60;3.72;;;6.60;99.90;;;;;;5013847;28;20208;-81
2022/01/17 06:05:53;;;;;;;16.20;3.70;;;6.60;99.90;;;;;;5012626;28;20049;-81
2022/01/17 06:08:19;;;;;;;19.08;4.05;;;6.60;99.90;;;;;;5028800;28;20342;-81
2022/01/17 06:10:44;;;;;;;19.52;4.22;;;6.60;99.90;;;;;;5019798;28;20041;-81
2022/01/17 06:13:10;;;;;;;18.90;4.28;;;6.60;99.90;;;;;;5017223;28;20071;-81
2022/01/17 06:15:36;;;;;;;23.23;4.60;;;6.60;99.90;;;;;;5014388;28;20076;-81
2022/01/17 06:18:02;;;;;;;20.92;3.50;;;6.60;99.90;;;;;;5013310;28;20051;-81
2022/01/17 06:20:28;;;;;;;13.02;3.10;;;6.60;99.90;;;;;;5009200;28;20566;-81
2022/01/17 06:22:53;;;;;;;9.07;2.97;;;6.60;99.90;;;;;;5010034;28;20041;-81
2022/01/17 06:25:19;;;;;;;20.45;4.38;;;6.60;99.90;;;;;;5013459;28;20324;-81
2022/01/17 06:27:45;;;;;;;19.08;3.95;;;6.60;99.90;;;;;;5010060;28;20316;-81
2022/01/17 06:30:13;;;;;;;19.20;3.47;;;6.60;99.90;;;;;;5014162;28;20104;-81
2022/01/17 06:32:40;;;;;;;16.15;3.72;;;6.60;99.90;;;;;;5024328;28;20041;-81
2022/01/17 06:35:06;;;;;;;18.67;4.28;;;6.60;99.90;;;;;;5037582;28;20053;-81
2022/01/17 06:37:32;;;;;;;20.35;4.13;;;6.60;99.90;;;;;;4994403;28;20653;-81
2022/01/17 06:39:57;;;;;;;17.52;4.18;;;6.60;99.90;;;;;;5016896;28;20075;-81
2022/01/17 06:42:24;;;;;;;21.02;3.95;;;6.60;99.90;;;;;;5018918;28;20045;-81
2022/01/17 06:44:50;;;;;;;17.13;3.97;;;6.50;99.90;;;;;;5004087;28;20193;-81
2022/01/17 06:47:16;;;;;;;28.30;5.68;;;6.60;99.90;;;;;;5007128;28;20554;-81
2022/01/17 06:49:42;;;;;;;16.02;4.75;;;6.60;99.90;;;;;;5037077;28;20120;-81
2022/01/17 06:52:08;;;;;;;19.50;4.57;;;6.50;99.90;;;;;;5013712;28;20049;-81
2022/01/17 06:54:33;;;;;;;22.02;4.28;;;6.50;99.90;;;;;;5013891;28;20453;-81
2022/01/17 06:56:59;;;;;;;19.23;4.10;;;6.50;99.90;;;;;;5012807;28;20041;-81
2022/01/17 06:59:25;;;;;;;16.23;4.28;;;6.60;99.90;;;;;;5011501;28;20128;-81
2022/01/17 07:01:51;;;;;;;23.92;4.75;;;6.60;99.90;;;;;;4995007;28;20116;-81
2022/01/17 07:04:16;;;;;;;29.48;5.75;;;6.60;99.90;;;;;;5019776;28;20052;-80
2022/01/17 07:06:42;;;;;;;21.23;4.72;;;6.60;99.90;;;;;;5012407;28;20849;-81
2022/01/17 07:09:11;;;;;;;17.83;4.10;;;6.60;99.90;;;;;;5020472;28;20065;-81
2022/01/17 07:11:38;;;;;;;19.20;4.28;;;6.60;99.90;;;;;;5030102;28;20108;-81
2022/01/17 07:14:09;;;;;;;12.88;3.17;;;6.60;99.90;;;;;;5026965;28;20041;-81
2022/01/17 07:16:40;;;;;;;14.45;3.60;;;6.60;99.90;;;;;;5036583;28;20102;-81
2022/01/17 07:19:06;;;;;;;17.88;4.38;;;6.60;99.90;;;;;;5009493;28;20571;-81
2022/01/17 07:21:35;;;;;;;25.90;4.65;;;6.60;99.90;;;;;;5013243;28;20036;-81
2022/01/17 07:24:01;;;;;;;21.25;4.63;;;6.60;99.90;;;;;;5014524;28;20033;-81
2022/01/17 07:26:27;;;;;;;21.13;4.18;;;6.60;99.90;;;;;;5007064;28;20076;-81
2022/01/17 07:28:52;;;;;;;18.17;4.18;;;6.70;99.90;;;;;;5008096;28;20040;-81
2022/01/17 07:31:21;;;;;;;19.67;4.25;;;6.70;99.90;;;;;;5010771;28;20045;-81
2022/01/17 07:33:47;;;;;;;22.95;5.00;;;6.70;99.90;;;;;;4993650;28;20029;-81
2022/01/17 07:36:18;;;;;;;22.90;4.18;;;6.80;99.90;;;;;;5007570;28;20036;-81
2022/01/17 07:38:44;;;;;;;21.60;4.40;;;6.80;99.90;;;;;;5008091;28;20050;-81
2022/01/17 07:41:10;;;;;;;23.27;4.53;;;6.80;99.90;;;;;;5022217;28;20064;-81
2022/01/17 07:43:37;;;;;;;23.73;4.13;;;6.80;99.90;;;;;;5002208;28;20050;-81
2022/01/17 07:46:06;;;;;;;22.92;4.07;;;6.80;99.90;;;;;;5019699;28;20474;-81
2022/01/17 07:48:56;;;;;;;21.55;4.13;;;6.90;99.90;;;;;;5005188;28;20457;-81
2022/01/17 07:51:21;;;;;;;25.55;4.95;;;6.90;99.90;;;;;;5005049;28;20064;-81
2022/01/17 07:53:47;;;;;;;19.13;4.20;;;6.90;99.90;;;;;;5012377;28;20077;-81
2022/01/17 07:56:12;;;;;;;28.50;5.63;;;6.90;99.90;;;;;;5027804;28;20072;-81
2022/01/17 07:58:38;;;;;;;32.05;5.63;;;6.90;99.90;;;;;;5009028;28;20059;-81
2022/01/17 08:01:04;;;;;;;26.60;5.35;;;7.00;99.90;;;;;;5008788;28;20551;-81
2022/01/17 08:03:30;;;;;;;26.48;4.78;;;7.00;99.90;;;;;;5010171;28;20045;-81
2022/01/17 08:05:56;;;;;;;27.67;4.45;;;7.00;99.90;;;;;;5010937;28;20049;-81
2022/01/17 08:08:22;;;;;;;24.45;4.97;;;7.00;99.90;;;;;;5009697;28;20045;-81
2022/01/17 08:10:48;;;;;;;28.38;4.65;;;7.10;99.90;;;;;;5010840;28;20037;-81
2022/01/17 08:13:14;;;;;;;21.63;4.03;;;7.10;99.90;;;;;;5007698;28;20064;-81
2022/01/17 08:15:40;;;;;;;26.67;4.40;;;7.10;99.90;;;;;;5012954;28;20404;-81
2022/01/17 08:18:06;;;;;;;30.00;6.03;;;7.20;99.90;;;;;;5012157;28;20041;-81
2022/01/17 08:20:31;;;;;;;36.90;5.40;;;7.20;99.90;;;;;;5036458;28;20110;-81
2022/01/17 08:22:57;;;;;;;28.60;4.97;;;7.20;99.90;;;;;;5036859;28;20201;-81
2022/01/17 08:25:24;;;;;;;27.75;5.32;;;7.30;99.90;;;;;;5012123;28;20049;-81
2022/01/17 08:27:50;;;;;;;29.20;5.60;;;7.30;99.90;;;;;;4999587;28;20033;-81
2022/01/17 08:30:15;;;;;;;26.52;5.22;;;7.40;99.90;;;;;;5007044;28;20105;-81
2022/01/17 08:32:41;;;;;;;29.73;5.28;;;7.40;99.90;;;;;;5009740;28;20190;-81
2022/01/17 08:35:07;;;;;;;27.25;4.80;;;7.50;99.90;;;;;;4998972;28;20369;-81
2022/01/17 08:37:33;;;;;;;31.85;4.97;;;7.50;99.90;;;;;;4990144;28;20078;-81
2022/01/17 08:40:01;;;;;;;31.40;4.93;;;7.60;99.90;;;;;;5008345;28;20049;-81
2022/01/17 08:42:27;;;;;;;35.03;4.97;;;7.60;99.90;;;;;;5010948;28;20087;-81
2022/01/17 08:44:57;;;;;;;31.45;5.22;;;7.60;99.90;;;;;;5002872;28;20037;-81
2022/01/17 08:47:23;;;;;;;28.42;4.78;;;7.60;99.90;;;;;;5009084;28;20041;-81
2022/01/17 08:49:49;;;;;;;31.20;5.53;;;7.70;99.90;;;;;;5008981;28;20071;-81
2022/01/17 08:52:19;;;;;;;25.55;4.38;;;7.80;99.90;;;;;;5008197;28;20125;-81
2022/01/17 08:54:46;;;;;;;26.27;5.20;;;7.80;99.90;;;;;;5004667;28;21317;-81
2022/01/17 08:57:12;;;;;;;20.55;5.25;;;7.90;99.90;;;;;;5006369;28;20058;-81
2022/01/17 08:59:38;;;;;;;29.58;3.95;;;8.00;99.90;;;;;;5018246;28;20040;-81
2022/01/17 09:02:04;;;;;;;29.55;6.47;;;8.00;99.90;;;;;;5019552;28;20043;-81
2022/01/17 09:04:30;;;;;;;28.58;5.28;;;8.00;99.90;;;;;;4994141;28;20057;-81
2022/01/17 09:06:56;;;;;;;27.27;5.07;;;8.10;99.90;;;;;;5010402;28;20033;-82
2022/01/17 09:09:21;;;;;;;26.63;5.03;;;8.20;99.90;;;;;;5010033;28;20057;-82
2022/01/17 09:11:47;;;;;;;28.45;4.78;;;8.20;99.90;;;;;;5010139;28;20080;-81
2022/01/17 09:14:14;;;;;;;22.42;3.63;;;8.30;99.90;;;;;;5010062;28;20055;-81
2022/01/17 09:16:39;;;;;;;28.98;4.97;;;8.40;99.90;;;;;;5011397;28;20148;-81
2022/01/17 09:19:07;;;;;;;17.90;4.38;;;8.40;99.90;;;;;;5006970;28;20130;-81
2022/01/17 09:21:32;;;;;;;29.10;5.13;;;8.50;99.90;;;;;;5015719;28;20428;-81
2022/01/17 09:23:58;;;;;;;23.63;4.93;;;8.60;99.90;;;;;;5011557;28;20037;-81
2022/01/17 09:26:25;;;;;;;32.28;5.05;;;8.60;99.90;;;;;;4999161;28;20482;-81
2022/01/17 09:28:55;;;;;;;29.33;5.22;;;8.70;99.90;;;;;;5007632;28;20045;-81
2022/01/17 09:31:22;;;;;;;23.88;4.82;;;8.70;99.90;;;;;;4993955;28;20041;-81
2022/01/17 09:33:48;;;;;;;27.13;4.38;;;8.70;99.90;;;;;;5015907;28;20052;-81
2022/01/17 09:36:14;;;;;;;26.95;5.00;;;8.70;99.90;;;;;;5007944;28;20055;-81
2022/01/17 09:38:41;;;;;;;27.17;4.95;;;8.80;99.90;;;;;;5010271;28;20453;-81
2022/01/17 09:41:07;;;;;;;32.40;5.30;;;8.80;99.90;;;;;;4998993;28;20072;-81
2022/01/17 09:43:34;;;;;;;29.08;5.80;;;8.80;99.90;;;;;;4992159;28;20183;-81
2022/01/17 09:46:00;;;;;;;33.03;6.93;;;8.80;99.90;;;;;;5005404;28;20052;-81
2022/01/17 09:48:35;;;;;;;36.88;5.63;;;8.80;99.90;;;;;;4990605;28;20030;-81
2022/01/17 09:51:37;;;;;;;26.70;6.13;;;8.90;99.90;;;;;;5005423;28;20041;-81
2022/01/17 09:54:04;;;;;;;32.53;5.68;;;8.90;99.90;;;;;;5008629;28;20502;-81
2022/01/17 09:56:31;;;;;;;33.95;5.20;;;8.90;99.90;;;;;;5005310;28;20064;-82
2022/01/17 09:58:58;;;;;;;33.63;5.80;;;9.00;99.90;;;;;;5019428;28;20033;-82
2022/01/17 10:01:25;;;;;;;24.90;4.60;;;9.00;99.90;;;;;;5010213;28;20029;-82
2022/01/17 10:03:56;;;;;;;35.80;5.57;;;9.00;99.90;;;;;;5016523;28;20042;-81
2022/01/17 10:06:24;;;;;;;25.52;4.57;;;9.00;99.90;;;;;;5008997;28;20403;-81
2022/01/17 10:09:27;;;;;;;37.58;6.20;;;9.00;99.90;;;;;;5011561;28;20065;-82
2022/01/17 10:12:13;;;;;;;27.05;5.22;;;9.00;99.90;;;;;;5010193;28;20049;-82
2022/01/17 10:14:41;;;;;;;37.47;5.55;;;9.10;99.90;;;;;;4996162;28;20045;-81
2022/01/17 10:17:16;;;;;;;30.17;4.50;;;9.10;99.90;;;;;;5010739;28;20076;-81
2022/01/17 10:19:43;;;;;;;33.35;5.70;;;9.20;99.90;;;;;;5008631;28;20042;-82
2022/01/17 10:22:19;;;;;;;28.92;4.72;;;9.20;99.90;;;;;;5006712;28;20231;-82
2022/01/17 10:25:05;;;;;;;43.47;6.50;;;9.30;99.90;;;;;;5007476;28;20492;-82
2022/01/17 10:27:57;;;;;;;34.45;6.32;;;9.30;99.90;;;;;;5028762;28;20113;-81
2022/01/17 10:31:07;;;;;;;36.47;5.57;;;9.30;99.90;;;;;;5006883;28;20450;-81
2022/01/17 10:36:02;;;;;;;37.57;6.57;;;9.20;99.90;;;;;;5004180;28;20054;-82
2022/01/17 10:38:28;;;;;;;32.30;6.15;;;9.30;99.90;;;;;;5010044;28;20049;-81
2022/01/17 10:40:58;;;;;;;34.35;5.72;;;9.40;99.90;;;;;;5003703;28;20054;-82
2022/01/17 10:43:35;;;;;;;42.38;6.75;;;9.40;99.90;;;;;;4999027;28;20063;-82
2022/01/17 10:46:10;;;;;;;26.40;5.57;;;9.40;99.90;;;;;;5006409;28;20052;-81
2022/01/17 10:48:45;;;;;;;32.42;6.38;;;9.30;99.90;;;;;;5013569;28;20452;-81
2022/01/17 10:51:12;;;;;;;37.33;6.53;;;9.20;99.90;;;;;;5006677;28;20391;-82
2022/01/17 10:53:41;;;;;;;37.50;7.65;;;9.10;99.90;;;;;;5012829;28;20125;-81
2022/01/17 10:56:10;;;;;;;25.98;5.18;;;9.10;99.90;;;;;;5018611;28;20046;-82
2022/01/17 10:58:38;;;;;;;31.13;6.18;;;9.20;99.90;;;;;;5011060;28;20041;-82
2022/01/17 11:01:12;;;;;;;36.65;7.43;;;9.30;99.90;;;;;;5012056;28;20089;-82
2022/01/17 11:03:41;;;;;;;40.10;7.30;;;9.40;99.90;;;;;;5011946;28;20102;-81
2022/01/17 11:06:12;;;;;;;32.25;6.45;;;9.40;99.90;;;;;;5012626;28;20076;-82
2022/01/17 11:08:40;;;;;;;39.28;6.70;;;9.30;99.90;;;;;;5012445;28;20099;-81
2022/01/17 11:11:08;;;;;;;30.67;6.38;;;9.30;99.90;;;;;;5012243;28;20112;-81
2022/01/17 11:13:38;;;;;;;33.80;6.00;;;9.40;99.90;;;;;;5012000;28;20585;-82
2022/01/17 11:16:08;;;;;;;32.65;6.78;;;9.50;99.90;;;;;;5019010;28;20046;-82
2022/01/17 11:18:36;;;;;;;39.53;6.53;;;9.60;99.90;;;;;;5039982;28;20107;-81
2022/01/17 11:21:11;;;;;;;37.58;7.20;;;9.60;99.90;;;;;;4993520;28;20206;-81
2022/01/17 11:23:43;;;;;;;42.45;6.70;;;9.60;99.90;;;;;;5025632;28;20053;-82
2022/01/17 11:26:10;;;;;;;36.50;5.88;;;9.50;99.90;;;;;;5009082;28;20175;-82
2022/01/17 11:28:37;;;;;;;47.67;8.63;;;9.60;99.90;;;;;;5007957;28;20042;-81
2022/01/17 11:31:07;;;;;;;37.00;6.68;;;9.70;99.90;;;;;;4993999;28;20033;-81
2022/01/17 11:33:34;;;;;;;38.45;6.22;;;9.80;99.90;;;;;;5008468;28;20527;-82
2022/01/17 11:36:00;;;;;;;40.58;7.85;;;9.80;99.90;;;;;;5009426;28;20045;-82
2022/01/17 11:38:33;;;;;;;41.25;7.78;;;9.70;99.90;;;;;;5011891;28;20050;-82
2022/01/17 11:41:01;;;;;;;43.20;7.78;;;9.80;99.90;;;;;;5014273;28;20470;-82
2022/01/17 11:43:37;;;;;;;48.42;7.30;;;9.80;99.90;;;;;;5009875;28;20080;-82
2022/01/17 11:46:18;;;;;;;41.80;8.18;;;9.80;99.90;;;;;;5023961;28;20190;-82
2022/01/17 11:49:02;;;;;;;38.38;7.00;;;9.80;99.90;;;;;;5008532;28;20037;-82
2022/01/17 11:51:47;;;;;;;42.05;7.15;;;9.70;99.90;;;;;;4994744;28;20042;-82
2022/01/17 11:54:21;;;;;;;28.10;6.57;;;9.60;99.90;;;;;;5010245;28;20056;-82
2022/01/17 11:56:51;;;;;;;35.95;7.13;;;9.60;99.90;;;;;;5011597;28;20041;-82
2022/01/17 11:59:34;;;;;;;31.02;6.80;;;9.60;99.90;;;;;;5011178;28;20131;-82
2022/01/17 12:02:18;;;;;;;43.38;7.32;;;9.60;99.90;;;;;;5013375;28;20048;-82
2022/01/17 12:05:03;;;;;;;28.90;5.55;;;9.70;99.90;;;;;;5009980;28;20143;-82
2022/01/17 12:07:52;;;;;;;35.20;7.40;;;9.70;99.90;;;;;;5011956;28;22286;-82
2022/01/17 12:10:20;;;;;;;37.22;7.13;;;9.60;99.90;;;;;;5002753;28;20317;-82
2022/01/17 12:13:16;;;;;;;36.03;7.00;;;9.70;99.90;;;;;;5009042;28;20125;-82
2022/01/17 12:16:09;;;;;;;42.85;7.72;;;9.70;99.90;;;;;;5011686;28;20495;-82
2022/01/17 12:19:03;;;;;;;33.92;7.18;;;9.70;99.90;;;;;;5034085;28;20078;-82
2022/01/17 12:21:34;;;;;;;37.13;7.35;;;9.70;99.90;;;;;;4984524;28;20045;-82
2022/01/17 12:24:34;;;;;;;38.42;7.60;;;9.80;99.90;;;;;;5012981;28;20055;-82
2022/01/17 12:27:06;;;;;;;38.75;6.47;;;9.80;99.90;;;;;;5011844;28;20049;-82
2022/01/17 12:29:40;;;;;;;40.13;7.30;;;9.70;99.90;;;;;;5011321;28;20387;-82
2022/01/17 12:32:40;;;;;;;38.50;7.28;;;9.70;99.90;;;;;;4990943;28;20045;-82
2022/01/17 12:35:05;;;;;;;28.95;6.60;;;9.60;99.90;;;;;;5007692;28;20132;-82
2022/01/17 12:37:53;;;;;;;36.90;7.53;;;9.50;99.90;;;;;;5021336;28;20041;-82
2022/01/17 12:40:30;;;;;;;34.53;6.35;;;9.50;99.90;;;;;;5009302;28;20049;-82
2022/01/17 12:43:14;;;;;;;38.83;7.22;;;9.50;99.90;;;;;;5012928;28;20144;-82
2022/01/17 12:45:44;;;;;;;41.50;6.90;;;9.50;99.90;;;;;;5011310;28;20127;-82
2022/01/17 12:48:15;;;;;;;38.08;7.25;;;9.50;99.90;;;;;;5006825;28;20254;-82
2022/01/17 12:50:43;;;;;;;40.05;8.55;;;9.50;99.90;;;;;;5018681;28;20050;-82
2022/01/17 12:53:11;;;;;;;36.13;7.18;;;9.50;99.90;;;;;;4991232;28;20063;-82
2022/01/17 12:55:41;;;;;;;36.67;7.32;;;9.50;99.90;;;;;;5006156;28;20381;-82
2022/01/17 12:58:27;;;;;;;27.95;5.40;;;9.50;99.90;;;;;;5009719;28;20258;-81
2022/01/17 13:01:01;;;;;;;29.88;5.63;;;9.40;99.90;;;;;;5032874;28;20322;-82
2022/01/17 13:03:29;;;;;;;31.42;6.13;;;9.40;99.90;;;;;;4996380;28;20041;-82
2022/01/17 13:05:56;;;;;;;36.70;7.32;;;9.50;99.90;;;;;;5021200;28;20037;-82
2022/01/17 13:08:22;;;;;;;35.80;7.32;;;9.50;99.90;;;;;;5005056;28;20052;-82
2022/01/17 13:10:48;;;;;;;36.90;7.20;;;9.50;99.90;;;;;;5008259;28;20139;-82
2022/01/17 13:13:17;;;;;;;45.70;8.13;;;9.50;99.90;;;;;;5015427;28;20120;-82
2022/01/17 13:16:02;;;;;;;42.88;8.13;;;9.50;99.90;;;;;;5030043;28;20053;-82